sensor_id;sensor_type;location;lat;lon;timestamp;P1;durP1;ratioP1;P2;durP2;ratioP2
20122;SDS011;10222;50.848;4.336;2024-01-27T00:02:03;13.53;;;4.43;;
20122;SDS011;10222;50.848;4.336;2024-01-27T00:04:30;21.30;;;4.33;;
20122;SDS011;10222;50.848;4.336;2024-01-27T00:06:55;13.47;;;4.53;;
20122;SDS011;10222;50.848;4.336;2024-01-27T00:09:21;10.53;;;4.40;;
20122;SDS011;10222;50.848;4.336;2024-01-27T00:11:47;9.80;;;3.77;;
20122;SDS011;10222;50.848;4.336;2024-01-27T00:14:13;13.23;;;4.20;;
20122;SDS011;10222;50.848;4.336;2024-01-27T00:16:39;10.63;;;4.03;;
20122;SDS011;10222;50.848;4.336;2024-01-27T00:19:05;10.23;;;3.63;;
20122;SDS011;10222;50.848;4.336;2024-01-27T00:21:31;10.47;;;4.53;;
20122;SDS011;10222;50.848;4.336;2024-01-27T00:23:57;11.73;;;4.67;;
20122;SDS011;10222;50.848;4.336;2024-01-27T00:26:27;9.43;;;3.60;;
20122;SDS011;10222;50.848;4.336;2024-01-27T00:28:54;12.77;;;3.80;;
20122;SDS011;10222;50.848;4.336;2024-01-27T00:31:20;13.10;;;4.20;;
20122;SDS011;10222;50.848;4.336;2024-01-27T00:33:46;9.70;;;3.87;;
20122;SDS011;10222;50.848;4.336;2024-01-27T00:36:12;13.07;;;4.83;;
20122;SDS011;10222;50.848;4.336;2024-01-27T00:38:38;14.47;;;5.33;;
20122;SDS011;10222;50.848;4.336;2024-01-27T00:41:04;15.43;;;4.93;;
20122;SDS011;10222;50.848;4.336;2024-01-27T00:43:30;13.53;;;5.70;;
20122;SDS011;10222;50.848;4.336;2024-01-27T00:45:56;13.53;;;5.13;;
20122;SDS011;10222;50.848;4.336;2024-01-27T00:48:22;9.83;;;4.33;;
20122;SDS011;10222;50.848;4.336;2024-01-27T00:50:48;13.27;;;4.60;;
20122;SDS011;10222;50.848;4.336;2024-01-27T00:53:14;11.13;;;4.03;;
20122;SDS011;10222;50.848;4.336;2024-01-27T00:55:40;14.73;;;5.20;;
20122;SDS011;10222;50.848;4.336;2024-01-27T00:58:07;11.00;;;4.27;;
20122;SDS011;10222;50.848;4.336;2024-01-27T01:00:33;11.23;;;4.20;;
20122;SDS011;10222;50.848;4.336;2024-01-27T01:02:59;15.80;;;4.70;;
20122;SDS011;10222;50.848;4.336;2024-01-27T01:05:25;10.63;;;5.27;;
20122;SDS011;10222;50.848;4.336;2024-01-27T01:07:51;7.47;;;4.20;;
20122;SDS011;10222;50.848;4.336;2024-01-27T01:10:17;15.60;;;5.03;;
20122;SDS011;10222;50.848;4.336;2024-01-27T01:12:43;13.20;;;4.83;;
20122;SDS011;10222;50.848;4.336;2024-01-27T01:15:09;19.90;;;5.23;;
20122;SDS011;10222;50.848;4.336;2024-01-27T01:17:35;13.57;;;5.33;;
20122;SDS011;10222;50.848;4.336;2024-01-27T01:20:01;11.23;;;5.27;;
20122;SDS011;10222;50.848;4.336;2024-01-27T01:22:27;16.37;;;5.00;;
20122;SDS011;10222;50.848;4.336;2024-01-27T01:24:53;16.03;;;4.70;;
20122;SDS011;10222;50.848;4.336;2024-01-27T01:27:19;11.13;;;4.33;;
20122;SDS011;10222;50.848;4.336;2024-01-27T01:29:46;12.50;;;4.23;;
20122;SDS011;10222;50.848;4.336;2024-01-27T01:32:12;11.53;;;4.53;;
20122;SDS011;10222;50.848;4.336;2024-01-27T01:34:38;10.03;;;4.40;;
20122;SDS011;10222;50.848;4.336;2024-01-27T01:37:04;13.83;;;4.73;;
20122;SDS011;10222;50.848;4.336;2024-01-27T01:39:30;13.90;;;4.93;;
20122;SDS011;10222;50.848;4.336;2024-01-27T01:41:56;11.47;;;5.03;;
20122;SDS011;10222;50.848;4.336;2024-01-27T01:44:24;13.03;;;4.50;;
20122;SDS011;10222;50.848;4.336;2024-01-27T01:46:53;7.80;;;3.87;;
20122;SDS011;10222;50.848;4.336;2024-01-27T01:49:19;14.23;;;4.13;;
20122;SDS011;10222;50.848;4.336;2024-01-27T01:51:45;13.23;;;4.10;;
20122;SDS011;10222;50.848;4.336;2024-01-27T01:54:11;11.43;;;4.13;;
20122;SDS011;10222;50.848;4.336;2024-01-27T01:56:38;8.27;;;4.03;;
20122;SDS011;10222;50.848;4.336;2024-01-27T01:59:04;15.17;;;4.23;;
20122;SDS011;10222;50.848;4.336;2024-01-27T02:01:30;9.90;;;3.90;;
20122;SDS011;10222;50.848;4.336;2024-01-27T02:03:56;8.60;;;3.57;;
20122;SDS011;10222;50.848;4.336;2024-01-27T02:06:22;12.03;;;4.13;;
20122;SDS011;10222;50.848;4.336;2024-01-27T02:08:48;13.50;;;4.83;;
20122;SDS011;10222;50.848;4.336;2024-01-27T02:11:14;13.13;;;4.00;;
20122;SDS011;10222;50.848;4.336;2024-01-27T02:13:40;16.33;;;4.60;;
20122;SDS011;10222;50.848;4.336;2024-01-27T02:16:07;10.23;;;4.30;;
20122;SDS011;10222;50.848;4.336;2024-01-27T02:18:33;7.37;;;3.97;;
20122;SDS011;10222;50.848;4.336;2024-01-27T02:20:59;13.03;;;3.60;;
20122;SDS011;10222;50.848;4.336;2024-01-27T02:23:24;14.03;;;4.10;;
20122;SDS011;10222;50.848;4.336;2024-01-27T02:25:50;12.43;;;4.53;;
20122;SDS011;10222;50.848;4.336;2024-01-27T02:28:16;10.00;;;4.13;;
20122;SDS011;10222;50.848;4.336;2024-01-27T02:30:43;8.53;;;3.80;;
20122;SDS011;10222;50.848;4.336;2024-01-27T02:33:10;16.37;;;4.63;;
20122;SDS011;10222;50.848;4.336;2024-01-27T02:35:36;12.17;;;4.03;;
20122;SDS011;10222;50.848;4.336;2024-01-27T02:38:02;12.67;;;3.90;;
20122;SDS011;10222;50.848;4.336;2024-01-27T02:40:28;15.47;;;4.37;;
20122;SDS011;10222;50.848;4.336;2024-01-27T02:42:54;14.27;;;4.07;;
20122;SDS011;10222;50.848;4.336;2024-01-27T02:45:20;12.10;;;4.63;;
20122;SDS011;10222;50.848;4.336;2024-01-27T02:47:46;14.60;;;4.57;;
20122;SDS011;10222;50.848;4.336;2024-01-27T02:50:12;10.57;;;3.97;;
20122;SDS011;10222;50.848;4.336;2024-01-27T02:52:38;11.63;;;4.50;;
20122;SDS011;10222;50.848;4.336;2024-01-27T02:55:04;10.97;;;3.83;;
20122;SDS011;10222;50.848;4.336;2024-01-27T02:57:30;14.73;;;5.20;;
20122;SDS011;10222;50.848;4.336;2024-01-27T02:59:56;10.70;;;4.30;;
20122;SDS011;10222;50.848;4.336;2024-01-27T03:02:22;16.83;;;4.70;;
20122;SDS011;10222;50.848;4.336;2024-01-27T03:04:49;11.37;;;4.67;;
20122;SDS011;10222;50.848;4.336;2024-01-27T03:07:15;7.03;;;4.03;;
20122;SDS011;10222;50.848;4.336;2024-01-27T03:09:41;12.10;;;4.17;;
20122;SDS011;10222;50.848;4.336;2024-01-27T03:12:07;13.93;;;4.30;;
20122;SDS011;10222;50.848;4.336;2024-01-27T03:14:34;13.47;;;4.27;;
20122;SDS011;10222;50.848;4.336;2024-01-27T03:17:00;17.17;;;4.87;;
20122;SDS011;10222;50.848;4.336;2024-01-27T03:19:26;12.80;;;4.13;;
20122;SDS011;10222;50.848;4.336;2024-01-27T03:21:52;12.33;;;4.40;;
20122;SDS011;10222;50.848;4.336;2024-01-27T03:24:18;15.77;;;4.80;;
20122;SDS011;10222;50.848;4.336;2024-01-27T03:26:44;11.23;;;4.57;;
20122;SDS011;10222;50.848;4.336;2024-01-27T03:29:10;11.83;;;4.63;;
20122;SDS011;10222;50.848;4.336;2024-01-27T03:31:36;12.93;;;4.77;;
20122;SDS011;10222;50.848;4.336;2024-01-27T03:34:03;11.50;;;4.20;;
20122;SDS011;10222;50.848;4.336;2024-01-27T03:36:29;14.83;;;4.13;;
20122;SDS011;10222;50.848;4.336;2024-01-27T03:38:56;13.80;;;3.77;;
20122;SDS011;10222;50.848;4.336;2024-01-27T03:41:23;11.67;;;4.23;;
20122;SDS011;10222;50.848;4.336;2024-01-27T03:43:49;13.27;;;4.37;;
20122;SDS011;10222;50.848;4.336;2024-01-27T03:46:15;8.90;;;4.33;;
20122;SDS011;10222;50.848;4.336;2024-01-27T03:48:41;14.60;;;5.10;;
20122;SDS011;10222;50.848;4.336;2024-01-27T03:51:07;10.40;;;4.20;;
20122;SDS011;10222;50.848;4.336;2024-01-27T03:53:33;15.50;;;4.47;;
20122;SDS011;10222;50.848;4.336;2024-01-27T03:55:59;9.10;;;3.47;;
20122;SDS011;10222;50.848;4.336;2024-01-27T03:58:29;20.77;;;4.27;;
20122;SDS011;10222;50.848;4.336;2024-01-27T04:00:55;14.80;;;4.77;;
20122;SDS011;10222;50.848;4.336;2024-01-27T04:03:21;10.40;;;4.93;;
20122;SDS011;10222;50.848;4.336;2024-01-27T04:05:47;12.00;;;3.67;;
20122;SDS011;10222;50.848;4.336;2024-01-27T04:08:13;9.50;;;3.77;;
20122;SDS011;10222;50.848;4.336;2024-01-27T04:10:39;12.67;;;4.03;;
20122;SDS011;10222;50.848;4.336;2024-01-27T04:13:05;11.03;;;3.90;;
20122;SDS011;10222;50.848;4.336;2024-01-27T04:15:35;8.50;;;3.53;;
20122;SDS011;10222;50.848;4.336;2024-01-27T04:18:04;8.87;;;4.17;;
20122;SDS011;10222;50.848;4.336;2024-01-27T04:20:34;10.70;;;4.40;;
20122;SDS011;10222;50.848;4.336;2024-01-27T04:23:00;12.27;;;4.47;;
20122;SDS011;10222;50.848;4.336;2024-01-27T04:25:27;9.47;;;3.87;;
20122;SDS011;10222;50.848;4.336;2024-01-27T04:30:23;7.23;;;4.00;;
20122;SDS011;10222;50.848;4.336;2024-01-27T04:32:49;13.03;;;4.77;;
20122;SDS011;10222;50.848;4.336;2024-01-27T04:35:17;10.93;;;4.67;;
20122;SDS011;10222;50.848;4.336;2024-01-27T04:37:43;13.77;;;4.27;;
20122;SDS011;10222;50.848;4.336;2024-01-27T04:40:10;9.13;;;4.07;;
20122;SDS011;10222;50.848;4.336;2024-01-27T04:42:40;10.30;;;4.47;;
20122;SDS011;10222;50.848;4.336;2024-01-27T04:45:06;12.50;;;4.53;;
20122;SDS011;10222;50.848;4.336;2024-01-27T04:47:32;12.37;;;4.90;;
20122;SDS011;10222;50.848;4.336;2024-01-27T04:49:58;10.10;;;4.50;;
20122;SDS011;10222;50.848;4.336;2024-01-27T04:52:24;8.23;;;4.20;;
20122;SDS011;10222;50.848;4.336;2024-01-27T04:54:51;11.07;;;3.87;;
20122;SDS011;10222;50.848;4.336;2024-01-27T04:57:17;9.87;;;3.93;;
20122;SDS011;10222;50.848;4.336;2024-01-27T04:59:43;8.13;;;3.93;;
20122;SDS011;10222;50.848;4.336;2024-01-27T05:02:10;11.77;;;4.63;;
20122;SDS011;10222;50.848;4.336;2024-01-27T05:04:36;9.73;;;4.37;;
20122;SDS011;10222;50.848;4.336;2024-01-27T05:07:03;15.50;;;4.70;;
20122;SDS011;10222;50.848;4.336;2024-01-27T05:09:29;18.27;;;4.47;;
20122;SDS011;10222;50.848;4.336;2024-01-27T05:11:55;12.70;;;4.30;;
20122;SDS011;10222;50.848;4.336;2024-01-27T05:14:21;8.97;;;4.57;;
20122;SDS011;10222;50.848;4.336;2024-01-27T05:16:47;8.07;;;4.30;;
20122;SDS011;10222;50.848;4.336;2024-01-27T05:19:13;6.30;;;3.57;;
20122;SDS011;10222;50.848;4.336;2024-01-27T05:21:40;11.07;;;4.20;;
20122;SDS011;10222;50.848;4.336;2024-01-27T05:24:06;7.60;;;3.70;;
20122;SDS011;10222;50.848;4.336;2024-01-27T05:26:32;11.37;;;3.80;;
20122;SDS011;10222;50.848;4.336;2024-01-27T05:28:58;12.20;;;4.27;;
20122;SDS011;10222;50.848;4.336;2024-01-27T05:31:25;8.83;;;3.50;;
20122;SDS011;10222;50.848;4.336;2024-01-27T05:33:51;8.73;;;3.50;;
20122;SDS011;10222;50.848;4.336;2024-01-27T05:36:17;11.73;;;4.53;;
20122;SDS011;10222;50.848;4.336;2024-01-27T05:38:43;12.07;;;3.90;;
20122;SDS011;10222;50.848;4.336;2024-01-27T05:41:09;9.90;;;4.30;;
20122;SDS011;10222;50.848;4.336;2024-01-27T05:43:35;12.10;;;4.60;;
20122;SDS011;10222;50.848;4.336;2024-01-27T05:46:02;11.97;;;4.37;;
20122;SDS011;10222;50.848;4.336;2024-01-27T05:48:30;17.57;;;4.43;;
20122;SDS011;10222;50.848;4.336;2024-01-27T05:50:56;10.00;;;3.57;;
20122;SDS011;10222;50.848;4.336;2024-01-27T05:53:23;9.40;;;3.60;;
20122;SDS011;10222;50.848;4.336;2024-01-27T05:55:49;10.50;;;4.33;;
20122;SDS011;10222;50.848;4.336;2024-01-27T05:58:15;8.77;;;3.70;;
20122;SDS011;10222;50.848;4.336;2024-01-27T06:00:44;10.53;;;4.43;;
20122;SDS011;10222;50.848;4.336;2024-01-27T06:03:10;14.57;;;4.10;;
20122;SDS011;10222;50.848;4.336;2024-01-27T06:05:36;9.90;;;3.60;;
20122;SDS011;10222;50.848;4.336;2024-01-27T06:08:02;8.20;;;3.63;;
20122;SDS011;10222;50.848;4.336;2024-01-27T06:10:28;9.87;;;3.73;;
20122;SDS011;10222;50.848;4.336;2024-01-27T06:12:55;8.43;;;3.87;;
20122;SDS011;10222;50.848;4.336;2024-01-27T06:15:24;7.60;;;3.67;;
20122;SDS011;10222;50.848;4.336;2024-01-27T06:17:50;12.80;;;3.90;;
20122;SDS011;10222;50.848;4.336;2024-01-27T06:20:16;10.50;;;3.97;;
20122;SDS011;10222;50.848;4.336;2024-01-27T06:22:43;8.87;;;3.43;;
20122;SDS011;10222;50.848;4.336;2024-01-27T06:25:09;12.07;;;4.07;;
20122;SDS011;10222;50.848;4.336;2024-01-27T06:27:36;11.47;;;3.63;;
20122;SDS011;10222;50.848;4.336;2024-01-27T06:30:07;10.37;;;4.20;;
20122;SDS011;10222;50.848;4.336;2024-01-27T06:32:33;9.67;;;3.87;;
20122;SDS011;10222;50.848;4.336;2024-01-27T06:35:00;14.17;;;4.40;;
20122;SDS011;10222;50.848;4.336;2024-01-27T06:37:26;9.33;;;4.27;;
20122;SDS011;10222;50.848;4.336;2024-01-27T06:39:52;12.67;;;3.43;;
20122;SDS011;10222;50.848;4.336;2024-01-27T06:42:20;10.23;;;4.53;;
20122;SDS011;10222;50.848;4.336;2024-01-27T06:44:47;15.97;;;4.40;;
20122;SDS011;10222;50.848;4.336;2024-01-27T06:47:13;10.43;;;4.13;;
20122;SDS011;10222;50.848;4.336;2024-01-27T06:49:39;10.53;;;4.00;;
20122;SDS011;10222;50.848;4.336;2024-01-27T06:52:05;12.10;;;5.13;;
20122;SDS011;10222;50.848;4.336;2024-01-27T06:54:31;14.07;;;4.67;;
20122;SDS011;10222;50.848;4.336;2024-01-27T06:57:00;14.57;;;5.47;;
20122;SDS011;10222;50.848;4.336;2024-01-27T06:59:26;16.33;;;6.40;;
20122;SDS011;10222;50.848;4.336;2024-01-27T07:01:52;16.67;;;5.37;;
20122;SDS011;10222;50.848;4.336;2024-01-27T07:04:18;12.87;;;5.07;;
20122;SDS011;10222;50.848;4.336;2024-01-27T07:06:44;16.83;;;5.10;;
20122;SDS011;10222;50.848;4.336;2024-01-27T07:09:11;8.10;;;4.33;;
20122;SDS011;10222;50.848;4.336;2024-01-27T07:11:37;9.00;;;3.77;;
20122;SDS011;10222;50.848;4.336;2024-01-27T07:14:04;13.23;;;5.77;;
20122;SDS011;10222;50.848;4.336;2024-01-27T07:16:31;8.37;;;4.00;;
20122;SDS011;10222;50.848;4.336;2024-01-27T07:18:59;9.23;;;4.10;;
20122;SDS011;10222;50.848;4.336;2024-01-27T07:21:25;11.03;;;4.67;;
20122;SDS011;10222;50.848;4.336;2024-01-27T07:23:52;10.10;;;4.83;;
20122;SDS011;10222;50.848;4.336;2024-01-27T07:26:19;10.20;;;3.97;;
20122;SDS011;10222;50.848;4.336;2024-01-27T07:28:45;10.53;;;4.30;;
20122;SDS011;10222;50.848;4.336;2024-01-27T07:31:11;14.13;;;4.47;;
20122;SDS011;10222;50.848;4.336;2024-01-27T07:33:38;12.30;;;4.30;;
20122;SDS011;10222;50.848;4.336;2024-01-27T07:36:04;11.43;;;5.30;;
20122;SDS011;10222;50.848;4.336;2024-01-27T07:38:30;13.23;;;5.27;;
20122;SDS011;10222;50.848;4.336;2024-01-27T07:40:56;11.80;;;4.47;;
20122;SDS011;10222;50.848;4.336;2024-01-27T07:43:23;13.87;;;4.20;;
20122;SDS011;10222;50.848;4.336;2024-01-27T07:45:49;18.77;;;5.37;;
20122;SDS011;10222;50.848;4.336;2024-01-27T07:48:17;13.47;;;5.00;;
20122;SDS011;10222;50.848;4.336;2024-01-27T07:50:43;9.80;;;4.63;;
20122;SDS011;10222;50.848;4.336;2024-01-27T07:53:13;9.63;;;4.60;;
20122;SDS011;10222;50.848;4.336;2024-01-27T07:55:39;12.10;;;4.47;;
20122;SDS011;10222;50.848;4.336;2024-01-27T07:58:07;15.60;;;4.33;;
20122;SDS011;10222;50.848;4.336;2024-01-27T08:00:34;9.40;;;3.83;;
20122;SDS011;10222;50.848;4.336;2024-01-27T08:03:00;10.87;;;4.27;;
20122;SDS011;10222;50.848;4.336;2024-01-27T08:05:26;6.23;;;3.93;;
20122;SDS011;10222;50.848;4.336;2024-01-27T08:07:52;15.07;;;5.30;;
20122;SDS011;10222;50.848;4.336;2024-01-27T08:10:18;18.83;;;5.00;;
20122;SDS011;10222;50.848;4.336;2024-01-27T08:12:44;13.73;;;4.57;;
20122;SDS011;10222;50.848;4.336;2024-01-27T08:15:11;15.80;;;4.60;;
20122;SDS011;10222;50.848;4.336;2024-01-27T08:17:37;14.33;;;4.33;;
20122;SDS011;10222;50.848;4.336;2024-01-27T08:20:03;14.80;;;4.50;;
20122;SDS011;10222;50.848;4.336;2024-01-27T08:22:30;10.47;;;4.67;;
20122;SDS011;10222;50.848;4.336;2024-01-27T08:24:56;9.03;;;3.57;;
20122;SDS011;10222;50.848;4.336;2024-01-27T08:27:22;11.67;;;4.57;;
20122;SDS011;10222;50.848;4.336;2024-01-27T08:29:48;9.43;;;4.10;;
20122;SDS011;10222;50.848;4.336;2024-01-27T08:32:14;17.03;;;5.07;;
20122;SDS011;10222;50.848;4.336;2024-01-27T08:34:41;19.80;;;4.50;;
20122;SDS011;10222;50.848;4.336;2024-01-27T08:37:20;14.87;;;5.20;;
20122;SDS011;10222;50.848;4.336;2024-01-27T08:39:47;10.20;;;4.27;;
20122;SDS011;10222;50.848;4.336;2024-01-27T08:42:13;11.97;;;4.43;;
20122;SDS011;10222;50.848;4.336;2024-01-27T08:44:40;11.50;;;4.20;;
20122;SDS011;10222;50.848;4.336;2024-01-27T08:47:06;16.33;;;4.70;;
20122;SDS011;10222;50.848;4.336;2024-01-27T08:49:32;17.27;;;4.97;;
20122;SDS011;10222;50.848;4.336;2024-01-27T08:51:58;10.03;;;4.13;;
20122;SDS011;10222;50.848;4.336;2024-01-27T08:54:24;14.23;;;4.83;;
20122;SDS011;10222;50.848;4.336;2024-01-27T08:56:50;15.70;;;5.23;;
20122;SDS011;10222;50.848;4.336;2024-01-27T08:59:16;18.57;;;5.10;;
20122;SDS011;10222;50.848;4.336;2024-01-27T09:01:42;12.00;;;5.00;;
20122;SDS011;10222;50.848;4.336;2024-01-27T09:04:08;12.03;;;5.07;;
20122;SDS011;10222;50.848;4.336;2024-01-27T09:06:34;18.77;;;6.13;;
20122;SDS011;10222;50.848;4.336;2024-01-27T09:09:00;21.70;;;6.27;;
20122;SDS011;10222;50.848;4.336;2024-01-27T09:11:27;16.53;;;6.27;;
20122;SDS011;10222;50.848;4.336;2024-01-27T09:13:55;18.40;;;6.20;;
20122;SDS011;10222;50.848;4.336;2024-01-27T09:16:21;15.17;;;5.60;;
20122;SDS011;10222;50.848;4.336;2024-01-27T09:18:48;21.33;;;5.40;;
20122;SDS011;10222;50.848;4.336;2024-01-27T09:21:17;14.60;;;6.10;;
20122;SDS011;10222;50.848;4.336;2024-01-27T09:23:46;24.80;;;6.87;;
20122;SDS011;10222;50.848;4.336;2024-01-27T09:26:12;15.67;;;5.77;;
20122;SDS011;10222;50.848;4.336;2024-01-27T09:28:40;23.47;;;5.83;;
20122;SDS011;10222;50.848;4.336;2024-01-27T09:31:10;14.60;;;5.70;;
20122;SDS011;10222;50.848;4.336;2024-01-27T09:33:36;6.83;;;3.67;;
20122;SDS011;10222;50.848;4.336;2024-01-27T09:36:02;12.60;;;4.33;;
20122;SDS011;10222;50.848;4.336;2024-01-27T09:38:29;22.50;;;5.47;;
20122;SDS011;10222;50.848;4.336;2024-01-27T09:40:56;18.30;;;4.63;;
20122;SDS011;10222;50.848;4.336;2024-01-27T09:43:22;7.70;;;3.43;;
20122;SDS011;10222;50.848;4.336;2024-01-27T09:45:50;15.67;;;5.00;;
20122;SDS011;10222;50.848;4.336;2024-01-27T09:48:16;15.57;;;5.40;;
20122;SDS011;10222;50.848;4.336;2024-01-27T09:50:44;13.03;;;4.43;;
20122;SDS011;10222;50.848;4.336;2024-01-27T09:53:10;14.97;;;5.20;;
20122;SDS011;10222;50.848;4.336;2024-01-27T09:55:37;18.80;;;5.13;;
20122;SDS011;10222;50.848;4.336;2024-01-27T09:58:03;19.00;;;4.87;;
20122;SDS011;10222;50.848;4.336;2024-01-27T10:00:30;13.77;;;5.67;;
20122;SDS011;10222;50.848;4.336;2024-01-27T10:02:56;18.67;;;4.70;;
20122;SDS011;10222;50.848;4.336;2024-01-27T10:05:22;15.37;;;5.47;;
20122;SDS011;10222;50.848;4.336;2024-01-27T10:07:49;14.03;;;5.63;;
20122;SDS011;10222;50.848;4.336;2024-01-27T10:10:16;17.67;;;5.50;;
20122;SDS011;10222;50.848;4.336;2024-01-27T10:12:42;15.13;;;4.50;;
20122;SDS011;10222;50.848;4.336;2024-01-27T10:15:20;11.50;;;4.40;;
20122;SDS011;10222;50.848;4.336;2024-01-27T10:17:47;16.60;;;4.73;;
20122;SDS011;10222;50.848;4.336;2024-01-27T10:20:13;14.77;;;5.00;;
20122;SDS011;10222;50.848;4.336;2024-01-27T10:22:44;19.03;;;5.23;;
20122;SDS011;10222;50.848;4.336;2024-01-27T10:25:10;16.27;;;4.30;;
20122;SDS011;10222;50.848;4.336;2024-01-27T10:27:36;17.10;;;5.60;;
20122;SDS011;10222;50.848;4.336;2024-01-27T10:30:04;16.77;;;4.90;;
20122;SDS011;10222;50.848;4.336;2024-01-27T10:32:32;16.27;;;4.53;;
20122;SDS011;10222;50.848;4.336;2024-01-27T10:35:05;22.03;;;5.50;;
20122;SDS011;10222;50.848;4.336;2024-01-27T10:37:33;17.47;;;5.67;;
20122;SDS011;10222;50.848;4.336;2024-01-27T10:40:06;22.63;;;4.50;;
20122;SDS011;10222;50.848;4.336;2024-01-27T10:42:36;15.43;;;4.17;;
20122;SDS011;10222;50.848;4.336;2024-01-27T10:45:02;15.90;;;4.70;;
20122;SDS011;10222;50.848;4.336;2024-01-27T10:47:29;17.13;;;5.60;;
20122;SDS011;10222;50.848;4.336;2024-01-27T10:49:55;17.50;;;5.17;;
20122;SDS011;10222;50.848;4.336;2024-01-27T10:52:29;11.63;;;4.00;;
20122;SDS011;10222;50.848;4.336;2024-01-27T10:54:57;13.00;;;4.43;;
20122;SDS011;10222;50.848;4.336;2024-01-27T10:57:24;18.40;;;5.63;;
20122;SDS011;10222;50.848;4.336;2024-01-27T10:59:52;13.57;;;4.73;;
20122;SDS011;10222;50.848;4.336;2024-01-27T11:02:18;11.20;;;3.73;;
20122;SDS011;10222;50.848;4.336;2024-01-27T11:04:45;9.67;;;3.33;;
20122;SDS011;10222;50.848;4.336;2024-01-27T11:07:14;12.33;;;3.43;;
20122;SDS011;10222;50.848;4.336;2024-01-27T11:09:40;13.07;;;4.00;;
20122;SDS011;10222;50.848;4.336;2024-01-27T11:12:07;19.50;;;3.97;;
20122;SDS011;10222;50.848;4.336;2024-01-27T11:14:34;17.20;;;3.90;;
20122;SDS011;10222;50.848;4.336;2024-01-27T11:17:00;14.37;;;5.37;;
20122;SDS011;10222;50.848;4.336;2024-01-27T11:19:26;17.10;;;5.17;;
20122;SDS011;10222;50.848;4.336;2024-01-27T11:22:03;11.53;;;4.20;;
20122;SDS011;10222;50.848;4.336;2024-01-27T11:24:29;12.33;;;4.10;;
20122;SDS011;10222;50.848;4.336;2024-01-27T11:27:02;13.37;;;3.53;;
20122;SDS011;10222;50.848;4.336;2024-01-27T11:29:28;13.37;;;3.97;;
20122;SDS011;10222;50.848;4.336;2024-01-27T11:31:54;8.30;;;3.30;;
20122;SDS011;10222;50.848;4.336;2024-01-27T11:34:21;11.13;;;3.57;;
20122;SDS011;10222;50.848;4.336;2024-01-27T11:36:47;12.57;;;3.70;;
20122;SDS011;10222;50.848;4.336;2024-01-27T11:39:23;12.73;;;3.43;;
20122;SDS011;10222;50.848;4.336;2024-01-27T11:41:50;11.30;;;3.93;;
20122;SDS011;10222;50.848;4.336;2024-01-27T11:44:16;12.27;;;4.03;;
20122;SDS011;10222;50.848;4.336;2024-01-27T11:46:43;14.07;;;4.10;;
20122;SDS011;10222;50.848;4.336;2024-01-27T11:49:12;10.77;;;3.77;;
20122;SDS011;10222;50.848;4.336;2024-01-27T11:51:40;11.30;;;3.37;;
20122;SDS011;10222;50.848;4.336;2024-01-27T11:54:06;9.80;;;3.27;;
20122;SDS011;10222;50.848;4.336;2024-01-27T11:56:32;12.87;;;3.33;;
20122;SDS011;10222;50.848;4.336;2024-01-27T11:58:58;12.00;;;3.20;;
20122;SDS011;10222;50.848;4.336;2024-01-27T12:01:24;7.63;;;2.87;;
20122;SDS011;10222;50.848;4.336;2024-01-27T12:03:50;13.47;;;3.50;;
20122;SDS011;10222;50.848;4.336;2024-01-27T12:06:16;10.43;;;3.53;;
20122;SDS011;10222;50.848;4.336;2024-01-27T12:08:42;10.90;;;4.00;;
20122;SDS011;10222;50.848;4.336;2024-01-27T12:11:15;9.67;;;3.13;;
20122;SDS011;10222;50.848;4.336;2024-01-27T12:13:42;10.00;;;3.80;;
20122;SDS011;10222;50.848;4.336;2024-01-27T12:16:08;7.77;;;2.70;;
20122;SDS011;10222;50.848;4.336;2024-01-27T12:18:35;7.53;;;2.87;;
20122;SDS011;10222;50.848;4.336;2024-01-27T12:21:01;6.70;;;2.93;;
20122;SDS011;10222;50.848;4.336;2024-01-27T12:23:27;14.87;;;3.87;;
20122;SDS011;10222;50.848;4.336;2024-01-27T12:25:53;13.93;;;4.40;;
20122;SDS011;10222;50.848;4.336;2024-01-27T12:28:20;12.17;;;3.80;;
20122;SDS011;10222;50.848;4.336;2024-01-27T12:30:47;10.73;;;4.00;;
20122;SDS011;10222;50.848;4.336;2024-01-27T12:33:14;7.17;;;3.63;;
20122;SDS011;10222;50.848;4.336;2024-01-27T12:35:42;9.90;;;3.37;;
20122;SDS011;10222;50.848;4.336;2024-01-27T12:38:09;12.53;;;3.03;;
20122;SDS011;10222;50.848;4.336;2024-01-27T12:40:35;7.83;;;3.03;;
20122;SDS011;10222;50.848;4.336;2024-01-27T12:43:01;7.07;;;2.93;;
20122;SDS011;10222;50.848;4.336;2024-01-27T12:45:27;9.53;;;2.23;;
20122;SDS011;10222;50.848;4.336;2024-01-27T12:47:54;8.47;;;3.60;;
20122;SDS011;10222;50.848;4.336;2024-01-27T12:50:19;7.97;;;2.43;;
20122;SDS011;10222;50.848;4.336;2024-01-27T12:52:46;8.83;;;2.27;;
20122;SDS011;10222;50.848;4.336;2024-01-27T12:55:12;9.00;;;2.67;;
20122;SDS011;10222;50.848;4.336;2024-01-27T12:57:38;6.03;;;2.73;;
20122;SDS011;10222;50.848;4.336;2024-01-27T13:00:05;5.67;;;2.30;;
20122;SDS011;10222;50.848;4.336;2024-01-27T13:02:35;10.73;;;2.50;;
20122;SDS011;10222;50.848;4.336;2024-01-27T13:05:01;5.03;;;1.97;;
20122;SDS011;10222;50.848;4.336;2024-01-27T13:07:27;5.60;;;2.27;;
20122;SDS011;10222;50.848;4.336;2024-01-27T13:09:53;7.47;;;2.83;;
20122;SDS011;10222;50.848;4.336;2024-01-27T13:12:19;7.40;;;2.03;;
20122;SDS011;10222;50.848;4.336;2024-01-27T13:14:45;6.73;;;2.47;;
20122;SDS011;10222;50.848;4.336;2024-01-27T13:17:11;7.43;;;2.63;;
20122;SDS011;10222;50.848;4.336;2024-01-27T13:19:39;10.10;;;2.57;;
20122;SDS011;10222;50.848;4.336;2024-01-27T13:22:05;4.93;;;2.43;;
20122;SDS011;10222;50.848;4.336;2024-01-27T13:24:31;8.07;;;2.10;;
20122;SDS011;10222;50.848;4.336;2024-01-27T13:26:58;7.90;;;2.37;;
20122;SDS011;10222;50.848;4.336;2024-01-27T13:29:24;5.30;;;1.90;;
20122;SDS011;10222;50.848;4.336;2024-01-27T13:31:51;7.10;;;1.90;;
20122;SDS011;10222;50.848;4.336;2024-01-27T13:34:17;7.50;;;1.93;;
20122;SDS011;10222;50.848;4.336;2024-01-27T13:36:43;6.87;;;2.03;;
20122;SDS011;10222;50.848;4.336;2024-01-27T13:39:09;9.27;;;2.20;;
20122;SDS011;10222;50.848;4.336;2024-01-27T13:41:35;7.80;;;2.47;;
20122;SDS011;10222;50.848;4.336;2024-01-27T13:44:02;8.60;;;2.60;;
20122;SDS011;10222;50.848;4.336;2024-01-27T13:46:28;12.07;;;2.80;;
20122;SDS011;10222;50.848;4.336;2024-01-27T13:48:54;8.40;;;2.63;;
20122;SDS011;10222;50.848;4.336;2024-01-27T13:51:20;4.83;;;2.17;;
20122;SDS011;10222;50.848;4.336;2024-01-27T13:53:46;8.17;;;1.97;;
20122;SDS011;10222;50.848;4.336;2024-01-27T13:56:14;4.27;;;1.83;;
20122;SDS011;10222;50.848;4.336;2024-01-27T13:58:40;6.17;;;2.43;;
20122;SDS011;10222;50.848;4.336;2024-01-27T14:01:06;5.77;;;2.20;;
20122;SDS011;10222;50.848;4.336;2024-01-27T14:03:33;8.47;;;2.90;;
20122;SDS011;10222;50.848;4.336;2024-01-27T14:05:59;5.80;;;1.87;;
20122;SDS011;10222;50.848;4.336;2024-01-27T14:08:25;6.70;;;2.13;;
20122;SDS011;10222;50.848;4.336;2024-01-27T14:10:55;7.87;;;1.97;;
20122;SDS011;10222;50.848;4.336;2024-01-27T14:13:23;8.13;;;2.60;;
20122;SDS011;10222;50.848;4.336;2024-01-27T14:15:49;8.40;;;1.57;;
20122;SDS011;10222;50.848;4.336;2024-01-27T14:18:15;4.40;;;1.83;;
20122;SDS011;10222;50.848;4.336;2024-01-27T14:20:46;5.23;;;2.00;;
20122;SDS011;10222;50.848;4.336;2024-01-27T14:23:12;8.00;;;2.60;;
20122;SDS011;10222;50.848;4.336;2024-01-27T14:25:38;7.77;;;1.67;;
20122;SDS011;10222;50.848;4.336;2024-01-27T14:28:04;5.70;;;1.80;;
20122;SDS011;10222;50.848;4.336;2024-01-27T14:30:32;11.10;;;2.50;;
20122;SDS011;10222;50.848;4.336;2024-01-27T14:32:59;7.37;;;2.33;;
20122;SDS011;10222;50.848;4.336;2024-01-27T14:35:25;10.77;;;3.10;;
20122;SDS011;10222;50.848;4.336;2024-01-27T14:37:51;7.23;;;2.23;;